Time;durP1;ratioP1;P1;durP2;ratioP2;P2;SDS_P1;SDS_P2;PMS_P1;PMS_P2;Temp;Humidity;BMP_temperature;BMP_pressure;BME280_temperature;BME280_humidity;BME280_pressure;Samples;Min_cycle;Max_cycle;Signal;HPM_P1;HPM_P2
2021/04/11 00:00:49;;;;;;;38.75;14.60;;;;;;;3.75;57.53;99765.20;1773172;81;21339;-80
2021/04/11 00:03:28;;;;;;;38.38;15.90;;;;;;;3.74;58.28;99765.17;1768405;79;21245;31
2021/04/11 00:05:56;;;;;;;43.10;15.95;;;;;;;3.71;58.22;99771.58;1767736;80;21746;-86
2021/04/11 00:08:24;;;;;;;40.78;14.83;;;;;;;3.69;61.56;99775.84;1737366;82;21303;-87
2021/04/11 00:10:56;;;;;;;44.40;16.82;;;;;;;3.68;60.67;99779.23;1711729;83;21333;-84
2021/04/11 00:13:34;;;;;;;40.90;16.07;;;;;;;3.65;62.12;99781.36;1704612;82;21341;-80
2021/04/11 00:16:03;;;;;;;42.00;16.48;;;;;;;3.64;60.75;99778.75;1680956;85;21197;-80
2021/04/11 00:18:32;;;;;;;38.02;14.47;;;;;;;3.59;59.46;99771.84;1676475;85;21193;-80
2021/04/11 00:21:03;;;;;;;33.48;14.47;;;;;;;3.57;58.71;99777.39;1724561;82;21126;-82
2021/04/11 00:23:31;;;;;;;37.25;13.70;;;;;;;3.55;58.20;99786.78;1731391;82;21559;-84
2021/04/11 00:25:58;;;;;;;38.53;14.73;;;;;;;3.55;58.06;99780.79;1733251;79;21312;-81
2021/04/11 00:28:26;;;;;;;38.65;15.23;;;;;;;3.53;60.09;99784.62;1719742;82;21300;-80
2021/04/11 00:30:53;;;;;;;40.63;16.75;;;;;;;3.52;62.24;99785.48;1767549;80;21471;-80
2021/04/11 00:33:30;;;;;;;36.05;14.28;;;;;;;3.50;60.11;99797.45;1760251;79;21252;-84
2021/04/11 00:36:03;;;;;;;41.42;15.80;;;;;;;3.49;63.14;99789.70;1790094;78;21294;-80
2021/04/11 00:38:31;;;;;;;39.87;15.37;;;;;;;3.50;63.67;99795.27;1796387;79;21251;-84
2021/04/11 00:41:15;;;;;;;40.33;16.75;;;;;;;3.50;61.88;99791.41;1796061;78;21265;-85
2021/04/11 00:43:45;;;;;;;35.38;14.38;;;;;;;3.46;62.64;99788.36;1779177;79;21276;-83
2021/04/11 00:46:36;;;;;;;38.98;15.98;;;;;;;3.44;63.25;99784.90;1763211;80;21324;-84
2021/04/11 00:49:24;;;;;;;36.70;16.48;;;;;;;3.42;61.19;99787.44;1750143;80;21264;-84
2021/04/11 00:51:54;;;;;;;34.55;14.47;;;;;;;3.40;63.85;99787.84;1763217;80;21133;-84
2021/04/11 00:54:22;;;;;;;36.03;15.68;;;;;;;3.36;65.92;99792.09;1778195;80;21261;-83
2021/04/11 00:56:50;;;;;;;34.63;13.60;;;;;;;3.32;62.35;99791.61;1766447;77;21298;-82
2021/04/11 00:59:19;;;;;;;36.15;14.30;;;;;;;3.26;66.40;99783.77;1748867;78;21217;-81
2021/04/11 01:01:47;;;;;;;30.02;13.00;;;;;;;3.19;65.64;99793.11;1764896;81;21278;-79
2021/04/11 01:04:17;;;;;;;33.83;13.90;;;;;;;3.14;66.64;99788.73;1777306;79;21297;-81
2021/04/11 01:06:59;;;;;;;30.55;12.00;;;;;;;3.08;65.98;99789.48;1765606;79;21165;-80
2021/04/11 01:09:36;;;;;;;27.22;10.45;;;;;;;3.04;64.75;99792.84;1765392;80;21159;-81
2021/04/11 01:12:08;;;;;;;25.27;10.32;;;;;;;2.91;64.07;99782.80;1723143;79;21268;-82
2021/04/11 01:27:19;;;;;;;25.72;10.35;;;;;;;2.87;63.10;99787.87;1750675;79;21150;-81
2021/04/11 01:29:49;;;;;;;23.02;10.63;;;;;;;2.85;62.29;99780.13;1735447;79;21189;-80
2021/04/11 01:35:29;;;;;;;25.68;11.45;;;;;;;2.82;61.90;99779.21;1758458;78;21193;-82
2021/04/11 01:37:59;;;;;;;22.62;10.72;;;;;;;2.82;63.38;99778.78;1795822;80;21248;-84
2021/04/11 01:40:42;;;;;;;23.47;9.53;;;;;;;2.81;63.00;99780.92;1788674;79;21258;-81
2021/04/11 01:43:11;;;;;;;22.42;10.23;;;;;;;2.79;60.61;99780.89;1750006;78;21532;-78
2021/04/11 01:45:42;;;;;;;21.30;10.32;;;;;;;2.77;63.64;99780.42;1734306;83;21252;-81
2021/04/11 01:48:11;;;;;;;22.95;9.40;;;;;;;2.76;64.29;99777.40;1734158;80;21288;-79
2021/04/11 01:50:40;;;;;;;20.65;9.18;;;;;;;2.74;62.61;99776.50;1732610;81;21260;-84
2021/04/11 01:53:10;;;;;;;21.20;9.65;;;;;;;2.71;64.43;99777.33;1729016;80;21167;-82
2021/04/11 01:55:40;;;;;;;22.30;8.95;;;;;;;2.69;63.51;99774.30;1739810;81;21232;-83
2021/04/11 01:58:11;;;;;;;22.22;9.55;;;;;;;2.66;63.24;99781.93;1698834;83;21273;-83
2021/04/11 02:00:49;;;;;;;21.90;9.63;;;;;;;2.65;63.18;99781.50;1709031;82;21244;-84
2021/04/11 02:03:19;;;;;;;20.88;8.33;;;;;;;2.63;62.58;99779.33;1736437;80;21268;-84
2021/04/11 02:05:48;;;;;;;24.63;9.55;;;;;;;2.61;63.94;99778.00;1739877;80;21514;-84
2021/04/11 02:08:24;;;;;;;28.20;9.30;;;;;;;2.60;64.75;99781.39;1740058;81;21308;-84
2021/04/11 02:10:55;;;;;;;32.13;11.95;;;;;;;2.56;64.83;99775.77;1709413;81;21279;-84
2021/04/11 02:13:30;;;;;;;28.47;11.57;;;;;;;2.51;66.62;99776.11;1709402;82;21272;-84
2021/04/11 02:16:01;;;;;;;29.27;12.07;;;;;;;2.45;66.48;99783.67;1740077;81;21137;-84
2021/04/11 02:18:34;;;;;;;27.82;11.22;;;;;;;2.34;69.45;99777.07;1755472;79;21103;-81
2021/04/11 02:21:07;;;;;;;26.17;11.03;;;;;;;2.28;69.91;99775.24;1768491;79;21185;-83
2021/04/11 02:23:39;;;;;;;23.40;10.38;;;;;;;2.23;70.59;99774.70;1751708;77;22403;31
2021/04/11 02:26:12;;;;;;;27.62;10.68;;;;;;;2.18;68.54;99777.19;1701877;82;21303;-80
2021/04/11 02:32:27;;;;;;;22.95;10.18;;;;;;;2.06;68.23;99777.81;1761069;78;21532;31
2021/04/11 02:34:55;;;;;;;24.10;9.83;;;;;;;2.01;68.52;99775.59;1739731;78;21149;-81
2021/04/11 02:37:29;;;;;;;19.77;9.10;;;;;;;1.98;69.21;99769.10;1707590;82;21249;-80
2021/04/11 02:39:59;;;;;;;23.30;10.05;;;;;;;1.95;69.41;99767.74;1794935;79;21283;-80
2021/04/11 02:48:55;;;;;;;20.10;9.90;;;;;;;1.89;68.89;99781.72;1770137;77;21154;-79
2021/04/11 02:51:30;;;;;;;22.22;9.45;;;;;;;1.89;64.31;99780.44;1790575;77;21244;-80
2021/04/11 02:54:03;;;;;;;20.37;9.08;;;;;;;1.79;68.09;99791.80;1762628;79;21258;-84
2021/04/11 02:56:32;;;;;;;19.60;8.30;;;;;;;1.77;68.94;99795.14;1771359;77;21248;-83
2021/04/11 02:59:00;;;;;;;27.65;11.35;;;;;;;1.74;66.25;99790.83;1740438;77;21248;-84
2021/04/11 03:01:36;;;;;;;27.22;11.20;;;;;;;1.75;69.71;99793.86;1723542;77;21287;-85
2021/04/11 03:04:05;;;;;;;22.75;9.68;;;;;;;1.75;68.71;99792.96;1733118;78;21269;-82
2021/04/11 03:06:37;;;;;;;22.10;9.68;;;;;;;1.75;68.71;99792.96;1737679;79;21300;-82
2021/04/11 03:09:10;;;;;;;19.50;8.38;;;;;;;1.73;66.58;99799.36;1780100;77;21249;-81
2021/04/11 03:11:47;;;;;;;18.73;8.90;;;;;;;1.69;68.02;99802.70;1749203;78;21278;-84
2021/04/11 03:14:20;;;;;;;23.90;8.85;;;;;;;1.68;69.33;99811.20;1757908;77;21271;-80
2021/04/11 03:16:50;;;;;;;22.40;10.13;;;;;;;1.64;68.53;99801.72;1755999;77;21612;-81
2021/04/11 03:22:28;;;;;;;21.20;9.58;;;;;;;1.69;70.22;99818.08;1744646;77;21167;-81
2021/04/11 03:24:56;;;;;;;24.52;10.13;;;;;;;1.68;69.85;99821.88;1742908;80;21268;-80
2021/04/11 03:37:08;;;;;;;21.57;9.18;;;;;;;1.60;66.38;99824.27;1750694;77;21265;-80
2021/04/11 03:49:28;;;;;;;19.60;7.83;;;;;;;1.53;68.66;99831.35;1758408;79;21194;31
2021/04/11 03:52:01;;;;;;;21.97;8.75;;;;;;;1.42;67.19;99832.82;1726621;80;21268;-81
2021/04/11 03:54:38;;;;;;;19.20;7.72;;;;;;;1.34;67.55;99832.21;1715810;81;21233;-82
2021/04/11 04:03:40;;;;;;;20.92;8.88;;;;;;;1.34;70.60;99843.73;1707447;81;21240;31
2021/04/11 04:06:32;;;;;;;20.75;9.05;;;;;;;1.37;67.71;99841.66;1729158;79;21360;31
2021/04/11 04:09:05;;;;;;;22.65;9.95;;;;;;;1.39;67.83;99843.45;1713474;82;21276;-81
2021/04/11 04:15:12;;;;;;;28.10;9.83;;;;;;;1.47;68.66;99834.63;1761788;78;21298;-82
2021/04/11 04:18:10;;;;;;;19.20;8.65;;;;;;;1.55;69.82;99830.97;1799076;78;21224;-85
2021/04/11 04:31:57;;;;;;;30.02;11.97;;;;;;;1.92;68.64;99859.59;1818439;75;22364;-81
2021/04/11 04:34:51;;;;;;;31.20;11.93;;;;;;;1.93;69.09;99865.58;1747889;81;21141;-84
2021/04/11 04:37:52;;;;;;;32.95;12.60;;;;;;;1.99;69.05;99864.45;1761816;79;21314;-82
2021/04/11 04:43:56;;;;;;;33.40;13.10;;;;;;;2.08;66.71;99868.48;1762242;76;21276;-81
2021/04/11 04:46:40;;;;;;;31.07;11.50;;;;;;;2.13;66.95;99868.17;1731725;81;21199;-84
2021/04/11 04:49:25;;;;;;;28.62;11.45;;;;;;;2.21;66.44;99864.89;1710012;83;21289;-84
2021/04/11 04:52:02;;;;;;;27.30;12.43;;;;;;;2.24;66.20;99872.23;1692925;81;21355;-84
2021/04/11 04:54:47;;;;;;;24.82;9.90;;;;;;;2.30;65.06;99872.36;1718123;78;21377;-81
2021/04/11 04:57:32;;;;;;;21.70;8.68;;;;;;;2.39;64.54;99876.84;1720152;81;21306;-84
2021/04/11 05:00:24;;;;;;;26.17;10.75;;;;;;;2.45;65.93;99879.52;1717242;82;21272;-83
2021/04/11 05:13:46;;;;;;;33.02;13.70;;;;;;;2.94;65.24;99894.57;1812486;77;28692;-81
2021/04/11 05:16:26;;;;;;;27.07;10.82;;;;;;;2.72;64.61;99841.95;1759473;78;21228;-84
2021/04/11 05:19:19;;;;;;;23.85;10.63;;;;;;;3.14;64.82;99893.67;1760439;78;21229;31
2021/04/11 05:21:54;;;;;;;24.07;10.98;;;;;;;3.25;64.62;99900.27;1710857;84;21335;-81
2021/04/11 05:24:33;;;;;;;24.37;10.53;;;;;;;3.37;65.81;99893.20;1696531;84;21192;-81
2021/04/11 05:27:22;;;;;;;23.25;10.23;;;;;;;3.48;67.00;99902.36;1695912;82;21157;-83
2021/04/11 05:30:11;;;;;;;21.17;10.43;;;;;;;3.55;66.79;99899.91;1729289;81;22429;-84
2021/04/11 05:32:39;;;;;;;19.77;10.15;;;;;;;3.64;65.83;99901.79;1684922;79;21325;-85
2021/04/11 05:35:10;;;;;;;17.45;8.90;;;;;;;3.73;65.46;99903.20;1682366;84;21167;-82
2021/04/11 05:38:05;;;;;;;19.70;9.23;;;;;;;3.83;64.01;99906.78;1666809;85;21267;-84
2021/04/11 05:41:05;;;;;;;20.43;9.25;;;;;;;3.90;63.89;99898.33;1654902;86;21533;-86
2021/04/11 05:43:38;;;;;;;22.98;10.13;;;;;;;4.01;64.15;99897.18;1678825;85;21284;-83
2021/04/11 05:46:15;;;;;;;21.30;10.10;;;;;;;4.12;64.08;99898.20;1681791;83;21198;-82
2021/04/11 05:48:56;;;;;;;25.48;11.08;;;;;;;4.22;64.36;99890.19;1681337;85;21452;-83
2021/04/11 05:51:40;;;;;;;20.17;10.10;;;;;;;4.31;63.22;99891.58;1681118;85;21344;-84
2021/04/11 05:54:28;;;;;;;21.00;10.25;;;;;;;4.39;64.12;99883.52;1681499;82;21302;-83
2021/04/11 05:57:13;;;;;;;26.73;10.90;;;;;;;4.48;65.10;99884.52;1680732;84;21272;-82
2021/04/11 05:59:52;;;;;;;20.08;10.15;;;;;;;4.55;63.88;99887.16;1681084;85;21280;-83
2021/04/11 06:02:39;;;;;;;24.50;10.55;;;;;;;4.66;64.89;99885.16;1682339;83;21281;-84
2021/04/11 06:05:42;;;;;;;25.75;11.10;;;;;;;4.82;64.83;99884.47;1794387;78;22938;-89
2021/04/11 06:08:21;;;;;;;25.37;10.78;;;;;;;4.83;62.18;99883.60;1764705;81;21274;-82
2021/04/11 06:10:57;;;;;;;23.10;10.38;;;;;;;4.89;62.69;99886.24;1771991;81;21275;-82
2021/04/11 06:13:41;;;;;;;25.15;11.18;;;;;;;4.97;61.96;99873.05;1772605;81;21301;-83
2021/04/11 06:16:13;;;;;;;23.20;9.53;;;;;;;5.07;60.49;99872.67;1813687;79;21305;-85
2021/04/11 06:18:45;;;;;;;16.35;9.08;;;;;;;5.17;60.54;99879.67;1820400;79;21236;-83
2021/04/11 06:21:28;;;;;;;21.75;9.50;;;;;;;5.32;60.01;99877.64;1820204;79;21304;-83
2021/04/11 06:24:03;;;;;;;24.00;9.40;;;;;;;5.46;59.63;99870.45;1808531;79;21257;-83
2021/04/11 06:26:42;;;;;;;18.02;9.15;;;;;;;5.61;58.88;99870.98;1791684;78;21262;-83
2021/04/11 06:29:24;;;;;;;20.60;8.88;;;;;;;5.71;57.78;99874.95;1787102;80;21306;-82
2021/04/11 06:31:59;;;;;;;27.85;9.33;;;;;;;5.83;57.94;99869.42;1787310;80;21293;-82
2021/04/11 06:34:43;;;;;;;21.65;9.28;;;;;;;5.95;56.88;99869.55;1757065;80;21278;-82
2021/04/11 06:37:15;;;;;;;23.77;9.18;;;;;;;6.08;56.09;99875.20;1787553;80;21286;-83
2021/04/11 06:39:45;;;;;;;31.68;10.18;;;;;;;6.23;56.27;99877.02;1787494;80;21745;-83
2021/04/11 06:42:35;;;;;;;19.62;9.58;;;;;;;6.35;55.46;99871.91;1803539;80;21264;-81
2021/04/11 06:45:34;;;;;;;23.02;8.95;;;;;;;6.47;55.65;99878.84;1803475;79;21181;-84
2021/04/11 06:48:40;;;;;;;24.67;10.25;;;;;;;6.61;55.12;99881.48;1803983;79;21260;-84
2021/04/11 06:51:32;;;;;;;17.27;8.40;;;;;;;6.72;54.55;99882.36;1769179;81;21267;-83
2021/04/11 06:54:46;;;;;;;19.92;9.50;;;;;;;6.80;53.68;99882.39;1781340;80;21304;-83
2021/04/11 06:57:31;;;;;;;23.77;9.35;;;;;;;6.94;51.98;99878.14;1720997;83;21252;-83
2021/04/11 07:00:33;;;;;;;21.62;10.65;;;;;;;7.10;51.98;99882.91;1742935;82;21291;-83
2021/04/11 07:03:44;;;;;;;19.42;9.10;;;;;;;7.18;51.99;99889.36;1750640;81;21320;-84
2021/04/11 07:06:53;;;;;;;25.10;8.70;;;;;;;7.24;51.96;99884.23;1766722;81;21248;-83
2021/04/11 07:09:44;;;;;;;20.02;9.48;;;;;;;7.40;52.36;99885.50;1741325;82;21310;-84
2021/04/11 07:12:47;;;;;;;20.65;8.73;;;;;;;7.51;52.49;99876.88;1743449;81;21260;-82
2021/04/11 07:15:49;;;;;;;20.62;9.28;;;;;;;7.60;52.33;99881.22;1737685;83;21335;-84
2021/04/11 07:18:28;;;;;;;22.55;9.88;;;;;;;7.73;52.32;99875.14;1749812;80;21275;-84
2021/04/11 07:21:19;;;;;;;19.87;9.83;;;;;;;7.88;51.57;99873.42;1757056;80;21264;-82
2021/04/11 07:24:25;;;;;;;18.12;9.30;;;;;;;8.00;51.79;99866.92;1757747;81;21280;-83
2021/04/11 07:27:21;;;;;;;22.02;10.13;;;;;;;8.11;51.33;99877.23;1794592;80;21276;-82
2021/04/11 07:30:28;;;;;;;19.32;9.10;;;;;;;8.26;51.16;99859.52;1774221;81;21308;-82
2021/04/11 07:33:32;;;;;;;22.22;11.30;;;;;;;8.43;51.36;99862.91;1768926;81;21320;-82
2021/04/11 07:36:42;;;;;;;23.32;10.88;;;;;;;8.66;50.78;99865.85;1766381;81;21299;-84
2021/04/11 07:39:18;;;;;;;23.20;11.45;;;;;;;8.84;49.52;99858.41;1749728;82;21245;-83
2021/04/11 07:42:31;;;;;;;24.55;9.75;;;;;;;9.00;49.15;99865.22;1772598;81;21311;-83
2021/04/11 07:45:23;;;;;;;24.67;10.45;;;;;;;9.12;48.69;99857.80;1750884;81;21346;-83
2021/04/11 07:48:22;;;;;;;21.45;10.28;;;;;;;9.31;48.39;99852.02;1741544;81;21575;-84
2021/04/11 07:51:27;;;;;;;21.82;9.75;;;;;;;9.42;47.56;99846.75;1793212;80;21121;-82
2021/04/11 07:54:37;;;;;;;23.87;11.20;;;;;;;9.56;47.87;99842.30;1803383;79;21660;-83
2021/04/11 07:57:42;;;;;;;21.55;9.03;;;;;;;9.69;46.50;99847.81;1800324;80;21268;-84
2021/04/11 08:00:43;;;;;;;20.52;9.78;;;;;;;9.84;47.27;99845.94;1787292;80;21217;-84
2021/04/11 08:03:47;;;;;;;20.08;9.38;;;;;;;10.01;46.47;99848.34;1786650;80;21268;-83
2021/04/11 08:06:26;;;;;;;16.25;8.38;;;;;;;10.16;45.51;99839.94;1786994;80;21311;-83
2021/04/11 08:09:10;;;;;;;19.17;8.25;;;;;;;10.33;42.77;99841.09;1808037;79;21126;-84
2021/04/11 08:12:17;;;;;;;16.80;7.92;;;;;;;10.48;44.13;99847.81;1819511;79;21264;-84
2021/04/11 08:15:02;;;;;;;16.77;8.25;;;;;;;10.67;43.66;99840.66;1727446;82;21236;-84
2021/04/11 08:18:14;;;;;;;18.32;8.58;;;;;;;10.83;42.05;99840.45;1765588;81;21275;-84
2021/04/11 08:21:31;;;;;;;17.95;7.83;;;;;;;10.99;42.35;99847.14;1797876;79;21256;-83
2021/04/11 08:24:19;;;;;;;17.05;8.08;;;;;;;11.06;38.52;99843.99;1795775;80;21801;-83
2021/04/11 08:27:24;;;;;;;17.82;8.78;;;;;;;11.19;41.29;99836.88;1802696;79;21299;-83
2021/04/11 08:30:15;;;;;;;20.60;8.58;;;;;;;11.33;40.78;99830.55;1794224;79;21295;-84
2021/04/11 08:33:12;;;;;;;20.95;8.73;;;;;;;11.46;41.58;99827.73;1819332;79;21244;-84
2021/04/11 08:36:06;;;;;;;16.93;7.95;;;;;;;11.56;41.44;99820.20;1719949;83;21276;-83
2021/04/11 08:38:53;;;;;;;22.45;7.85;;;;;;;11.68;39.82;99821.73;1818685;77;21312;-84
2021/04/11 08:41:58;;;;;;;14.28;8.15;;;;;;;11.79;38.95;99821.53;1806231;79;21255;-83
2021/04/11 08:44:43;;;;;;;16.45;7.97;;;;;;;11.89;37.77;99815.28;1783855;79;21266;-83
2021/04/11 08:47:40;;;;;;;17.73;7.85;;;;;;;12.05;36.36;99818.00;1791099;79;21245;-82
2021/04/11 08:50:19;;;;;;;11.45;6.47;;;;;;;12.21;36.82;99807.28;1794438;79;21244;-83
2021/04/11 08:53:26;;;;;;;16.32;8.30;;;;;;;12.36;37.60;99812.19;1801884;79;21268;-82
2021/04/11 08:56:07;;;;;;;13.58;6.90;;;;;;;12.50;36.88;99794.49;1808303;79;21268;-84
2021/04/11 08:59:05;;;;;;;19.73;7.33;;;;;;;12.71;35.03;99797.50;1749435;82;21285;-84
2021/04/11 09:02:02;;;;;;;14.33;6.80;;;;;;;12.88;35.33;99801.05;1760827;81;21162;-85
2021/04/11 09:05:00;;;;;;;10.40;5.72;;;;;;;13.03;36.45;99794.17;1776078;80;21138;-82
2021/04/11 09:08:01;;;;;;;12.25;6.10;;;;;;;13.20;35.52;99789.83;1792440;79;21319;-82
2021/04/11 09:10:49;;;;;;;15.32;6.25;;;;;;;13.37;34.10;99785.96;1797104;79;21274;-83
2021/04/11 09:13:46;;;;;;;12.43;5.95;;;;;;;13.52;36.25;99790.80;1756904;80;21239;-83
2021/04/11 09:16:48;;;;;;;11.97;6.67;;;;;;;13.65;34.67;99790.89;1793652;79;21287;-84
2021/04/11 09:19:24;;;;;;;12.28;5.97;;;;;;;13.78;34.78;99779.64;1784425;80;21260;-83
2021/04/11 09:22:17;;;;;;;13.78;6.28;;;;;;;13.87;34.37;99775.48;1793284;79;21366;-84
2021/04/11 09:25:01;;;;;;;12.88;6.10;;;;;;;14.06;34.15;99782.80;1797669;79;21256;-82
2021/04/11 09:27:53;;;;;;;10.95;5.75;;;;;;;14.22;32.21;99781.91;1816984;79;21307;-84
2021/04/11 09:30:53;;;;;;;13.53;6.58;;;;;;;14.34;34.29;99784.16;1803860;78;21580;-81
2021/04/11 09:33:38;;;;;;;12.30;6.03;;;;;;;14.43;34.43;99781.28;1775146;80;21315;-80
2021/04/11 09:36:33;;;;;;;11.97;6.17;;;;;;;14.50;31.55;99772.79;1818537;78;22734;-84
2021/04/11 09:39:39;;;;;;;15.55;6.47;;;;;;;14.58;33.10;99783.06;1810877;79;21145;-84
2021/04/11 09:42:22;;;;;;;15.58;6.15;;;;;;;14.64;31.82;99767.17;1819838;79;21237;-84
2021/04/11 09:45:13;;;;;;;;;;;;;;;14.82;33.92;99767.92;1813523;79;21165;-85
2021/04/11 09:47:53;;;;;;;14.58;6.12;;;;;;;14.97;31.62;99767.87;1796137;79;20216;-84
2021/04/11 09:50:46;;;;;;;14.40;6.47;;;;;;;15.10;33.49;99759.17;1819768;78;21948;-84
2021/04/11 09:53:19;;;;;;;10.58;5.83;;;;;;;15.18;32.81;99757.58;1785405;78;21347;-83
2021/04/11 09:56:10;;;;;;;14.18;6.00;;;;;;;15.38;33.48;99749.05;1787613;78;21320;-83
2021/04/11 09:59:09;;;;;;;15.93;5.78;;;;;;;15.49;33.03;99747.77;1728560;82;21197;-84
2021/04/11 10:01:57;;;;;;;13.10;5.78;;;;;;;15.64;32.84;99741.15;1791374;79;21171;-85
2021/04/11 10:04:45;;;;;;;12.25;5.03;;;;;;;15.87;32.88;99744.27;1801345;80;21169;-84
2021/04/11 10:07:35;;;;;;;9.38;4.90;;;;;;;16.02;32.73;99740.70;1812563;79;21255;-84
2021/04/11 10:10:17;;;;;;;11.35;5.20;;;;;;;16.08;32.25;99729.52;1819198;79;21106;-81
2021/04/11 10:13:11;;;;;;;11.35;5.28;;;;;;;16.29;32.23;99725.67;1815779;79;21636;-82
2021/04/11 10:15:46;;;;;;;10.63;4.92;;;;;;;16.57;31.83;99720.66;1797724;78;21185;-87
2021/04/11 10:19:11;;;;;;;11.33;5.58;;;;;;;16.74;31.87;99717.38;1787641;79;21248;-85
2021/04/11 10:22:05;;;;;;;13.80;5.62;;;;;;;16.93;29.32;99712.23;1723328;83;21285;-86
2021/04/11 10:25:08;;;;;;;10.93;5.50;;;;;;;17.23;32.19;99705.71;1730952;83;21691;-84
2021/04/11 10:28:35;;;;;;;10.85;5.78;;;;;;;17.57;31.81;99714.77;1799282;79;21146;-85
2021/04/11 10:31:31;;;;;;;10.53;5.17;;;;;;;17.76;31.12;99698.16;1753445;80;21103;-85
2021/04/11 10:34:12;;;;;;;8.65;5.10;;;;;;;17.96;30.34;99694.65;1743442;82;21345;-86
2021/04/11 10:36:51;;;;;;;10.70;5.47;;;;;;;18.07;30.18;99693.70;1743404;82;21319;-85
2021/04/11 10:39:30;;;;;;;11.57;4.90;;;;;;;18.32;30.22;99691.22;1743272;82;21323;-85
2021/04/11 10:42:26;;;;;;;11.78;4.55;;;;;;;18.65;30.15;99684.33;1751157;81;21161;-85
2021/04/11 10:45:26;;;;;;;10.63;6.12;;;;;;;18.97;29.85;99681.91;1772152;81;21130;-86
2021/04/11 10:48:15;;;;;;;10.43;5.17;;;;;;;19.08;26.14;99674.80;1752813;82;21349;-86
2021/04/11 10:51:13;;;;;;;9.68;4.22;;;;;;;19.39;30.05;99674.05;1785599;78;21243;-85
2021/04/11 10:54:18;;;;;;;10.03;4.15;;;;;;;19.46;25.83;99671.96;1787706;79;21231;-85
2021/04/11 10:57:15;;;;;;;16.12;8.85;;;;;;;19.51;26.02;99677.83;1790161;79;21284;-86
2021/04/11 11:00:15;;;;;;;16.67;7.92;;;;;;;19.65;27.41;99667.39;1786755;80;21134;-85
2021/04/11 11:03:04;;;;;;;11.73;4.92;;;;;;;19.73;25.88;99658.26;1787917;80;21252;-86
2021/04/11 11:06:20;;;;;;;8.70;4.17;;;;;;;19.78;27.33;99657.08;1745469;82;21255;-85
2021/04/11 11:09:19;;;;;;;9.23;4.33;;;;;;;19.83;24.70;99656.82;1773993;81;21181;-86
2021/04/11 11:12:38;;;;;;;7.90;4.03;;;;;;;20.18;27.56;99654.04;1751928;80;21267;-86
2021/04/11 11:15:20;;;;;;;8.20;3.83;;;;;;;20.61;27.20;99646.33;1770559;81;21272;-86
2021/04/11 11:18:18;;;;;;;8.88;4.00;;;;;;;21.15;25.92;99639.20;1792508;80;21253;-86
2021/04/11 11:21:28;;;;;;;5.92;3.52;;;;;;;21.59;25.65;99633.89;1802357;80;22086;-86
2021/04/11 11:24:43;;;;;;;14.70;4.75;;;;;;;21.75;25.22;99631.13;1803639;79;21409;-86
2021/04/11 11:27:36;;;;;;;7.28;3.27;;;;;;;22.14;22.99;99623.38;1811558;79;21289;-85
2021/04/11 11:30:36;;;;;;;6.85;3.50;;;;;;;22.58;24.15;99623.17;1802250;79;21617;-84
2021/04/11 11:33:40;;;;;;;7.45;3.60;;;;;;;22.77;24.22;99609.52;1801556;80;21299;-86
2021/04/11 11:36:37;;;;;;;7.20;3.60;;;;;;;22.90;21.57;99606.91;1801391;80;21263;-86
2021/04/11 11:39:59;;;;;;;5.97;3.27;;;;;;;22.69;22.90;99607.86;1776482;81;21260;-86
2021/04/11 11:42:50;;;;;;;10.10;3.12;;;;;;;22.58;19.42;99609.05;1796679;79;21126;-87
2021/04/11 11:45:41;;;;;;;8.18;3.37;;;;;;;22.69;22.05;99601.23;1813907;79;21229;-86
2021/04/11 11:48:29;;;;;;;6.10;2.83;;;;;;;22.71;19.17;99601.14;1820161;79;21090;-85
2021/04/11 11:51:14;;;;;;;7.50;2.80;;;;;;;23.15;21.50;99606.08;1820141;77;21295;-85
2021/04/11 11:53:49;;;;;;;7.95;2.87;;;;;;;23.32;21.45;99594.31;1820116;79;21241;-86
2021/04/11 11:56:27;;;;;;;5.95;2.55;;;;;;;23.40;21.20;99590.64;1818942;77;21261;-86
2021/04/11 11:59:15;;;;;;;6.95;2.67;;;;;;;23.45;18.78;99586.32;1820223;79;21269;-86
2021/04/11 12:02:30;;;;;;;7.83;2.52;;;;;;;23.77;20.79;99577.86;1822370;77;21122;-87
2021/04/11 12:05:19;;;;;;;5.62;2.77;;;;;;;23.82;19.28;99582.41;1823261;77;21288;-87
2021/04/11 12:07:58;;;;;;;8.50;2.70;;;;;;;24.13;19.85;99581.02;1823314;78;21260;-86
2021/04/11 12:10:33;;;;;;;5.12;2.40;;;;;;;24.13;18.92;99578.83;1823604;78;21182;-85
2021/04/11 12:13:29;;;;;;;7.30;2.65;;;;;;;24.22;19.94;99573.69;1818332;77;21288;-83
2021/04/11 12:16:08;;;;;;;4.33;2.37;;;;;;;24.20;15.90;99572.95;1820898;78;21324;-84
2021/04/11 12:19:00;;;;;;;6.20;2.58;;;;;;;24.19;18.51;99565.09;1749759;82;21320;-84
2021/04/11 12:21:51;;;;;;;7.78;2.60;;;;;;;24.07;18.50;99569.98;1815130;78;21284;-84
2021/04/11 12:24:35;;;;;;;6.08;2.80;;;;;;;23.86;18.20;99565.78;1775929;80;21291;-85
2021/04/11 12:27:06;;;;;;;6.50;3.20;;;;;;;23.86;17.35;99563.12;1791813;80;21279;-84
2021/04/11 12:29:40;;;;;;;6.37;2.60;;;;;;;24.30;18.39;99557.17;1800713;79;21256;-85
2021/04/11 12:32:19;;;;;;;10.08;2.92;;;;;;;24.58;18.83;99552.47;1817580;78;21760;-85
2021/04/11 12:35:12;;;;;;;6.92;3.10;;;;;;;24.50;16.05;99546.41;1813373;79;21304;-85
2021/04/11 12:37:51;;;;;;;6.07;2.80;;;;;;;24.55;16.13;99550.03;1796517;79;21276;-85
2021/04/11 12:40:33;;;;;;;6.60;2.92;;;;;;;24.52;17.48;99543.15;1816702;79;21308;-84
2021/04/11 12:43:18;;;;;;;8.75;3.05;;;;;;;24.84;17.47;99541.66;1818018;78;21215;-83
2021/04/11 12:46:18;;;;;;;8.90;2.67;;;;;;;25.29;18.12;99517.28;1791470;80;21272;-85
2021/04/11 12:49:00;;;;;;;5.72;2.33;;;;;;;25.94;17.52;99527.59;1818393;78;21233;-86
2021/04/11 12:51:42;;;;;;;5.83;2.83;;;;;;;26.65;16.67;99529.70;1820152;77;21225;-87
2021/04/11 12:54:35;;;;;;;8.30;3.45;;;;;;;27.33;16.98;99519.87;1794292;78;21217;-87
2021/04/11 12:57:10;;;;;;;6.95;3.12;;;;;;;27.57;16.98;99519.05;1804328;78;21280;-85
2021/04/11 13:00:16;;;;;;;5.42;2.80;;;;;;;27.49;14.43;99521.53;1801220;80;21319;-86
2021/04/11 13:03:16;;;;;;;5.10;2.85;;;;;;;27.73;13.29;99524.33;1789011;79;23562;-86
2021/04/11 13:05:50;;;;;;;6.62;3.15;;;;;;;28.15;15.07;99514.75;1789318;79;21276;-85
2021/04/11 13:08:38;;;;;;;12.47;4.92;;;;;;;28.91;13.60;99521.50;1820516;79;21274;-87
2021/04/11 13:11:17;;;;;;;8.03;3.40;;;;;;;29.70;15.73;99511.27;1805270;77;21283;-87
2021/04/11 13:14:07;;;;;;;8.35;3.35;;;;;;;30.22;12.91;99516.84;1800947;77;21216;-89
2021/04/11 13:16:44;;;;;;;6.70;3.02;;;;;;;29.68;13.97;99514.59;1774624;79;22187;-87
2021/04/11 13:19:17;;;;;;;8.38;3.45;;;;;;;29.25;14.51;99514.78;1820484;79;21161;-87
2021/04/11 13:22:11;;;;;;;6.35;3.33;;;;;;;28.76;14.59;99518.42;1788288;80;21295;-87
2021/04/11 13:25:00;;;;;;;6.70;3.10;;;;;;;28.24;13.84;99509.91;1815156;79;21288;-87
2021/04/11 13:27:36;;;;;;;6.47;3.22;;;;;;;27.91;14.79;99507.16;1742633;82;21251;-86
2021/04/11 13:30:28;;;;;;;7.12;3.55;;;;;;;27.73;15.59;99512.30;1765254;81;21283;-87
2021/04/11 13:33:04;;;;;;;8.80;3.05;;;;;;;27.35;15.50;99508.56;1743913;82;21262;-85
2021/04/11 13:35:46;;;;;;;7.12;3.08;;;;;;;26.95;15.51;99505.36;1756178;81;21225;-86
2021/04/11 13:38:33;;;;;;;7.03;3.15;;;;;;;26.55;15.10;99504.77;1737872;81;21289;-86
2021/04/11 13:41:21;;;;;;;7.00;3.80;;;;;;;26.24;16.16;99500.68;1707175;83;21293;-85
2021/04/11 13:44:18;;;;;;;9.00;3.30;;;;;;;26.05;16.19;99502.72;1745921;81;21253;-87
2021/04/11 13:46:51;;;;;;;5.90;3.15;;;;;;;25.86;16.50;99501.18;1786910;79;21178;-85
2021/04/11 13:49:33;;;;;;;8.25;3.27;;;;;;;25.56;16.97;99496.89;1793062;79;21313;-85
2021/04/11 13:52:12;;;;;;;10.23;3.70;;;;;;;25.84;16.84;99502.62;1799666;80;21745;-84
2021/04/11 13:55:06;;;;;;;7.85;3.50;;;;;;;26.17;17.37;99496.36;1783158;79;21322;-86
2021/04/11 13:57:45;;;;;;;6.85;3.52;;;;;;;26.88;16.89;99491.72;1793663;79;21272;-86
2021/04/11 14:00:26;;;;;;;5.40;3.00;;;;;;;27.68;16.04;99488.69;1742733;82;21315;-86
2021/04/11 14:02:57;;;;;;;6.87;3.72;;;;;;;28.26;16.10;99489.72;1744149;79;21465;-89
2021/04/11 14:05:32;;;;;;;8.40;3.30;;;;;;;28.32;15.55;99484.64;1743531;79;21287;-88
2021/04/11 14:08:35;;;;;;;7.17;3.37;;;;;;;29.00;14.76;99484.97;1744298;79;21536;-91
2021/04/11 14:11:18;;;;;;;8.13;3.80;;;;;;;29.03;14.88;99487.38;1745324;78;21264;-88
2021/04/11 14:14:04;;;;;;;;;;;;;;;30.01;15.17;99487.66;1725869;79;21154;-88
2021/04/11 14:23:17;;;;;;;8.20;3.33;;;;;;;31.58;13.29;99474.19;1749064;78;21110;-82